PWSweather.com
Personal Weather Stations
Station Observations
RTINEZ
TerrassaES 08226

TerrassaES 08226

Lat: 41.5762194, Lon: 2.028993700000001

Elevation: 367

Station Type: Watson W8681

www.rtinez.cat

High Low Average
Temperature 69.3°F20.7°C 58.1°F14.5°C 61.7°F16.5°C
Dew Point 64.9°F18.3°C 50.5°F10.3°C 56.6°F13.7°C
Winds 11.4 mph 18.3 kmh Calm Calm 4.0 mph SSW6.4 kmh SSW
Wind Gusts 25.1 mph40.4 kmh 2.2 mph3.5 kmh 9.0 mph14.5 kmh
Humidity 95% 63% 84%
Pressure 29.88 in1011.9 mb 29.72 in1006.4 mb -
Precipitation 0.26 in6.6 mm - -
Hour Temp Dew Point Humidity Winds Wind Gusts Pressure Precip Precip Rate Daily Precip Total
12:00 AM 69.3°F20.7°C 64.2°F17.9°C 84% 3.8 mph N6.1 kmh N 8.3 mph13.4 kmh 29.82 in1009.8 mb 0.00 in0.0 mm 0.00 in0.0 mm 0.00 in0.0 mm
12:15 AM 68.5°F20.3°C 59.9°F15.5°C 74% 4.5 mph N7.2 kmh N 9.2 mph14.8 kmh 29.80 in1009.1 mb 0.00 in0.0 mm 0.00 in0.0 mm 0.00 in0.0 mm
12:30 AM 68.4°F20.2°C 60.2°F15.7°C 75% 5.4 mph N8.7 kmh N 10.7 mph17.2 kmh 29.80 in1009.1 mb 0.00 in0.0 mm 0.00 in0.0 mm 0.00 in0.0 mm
12:45 AM 68.7°F20.4°C 62.0°F16.7°C 79% 4.5 mph NNW7.2 kmh NNW 8.3 mph13.4 kmh 29.80 in1009.1 mb 0.00 in0.0 mm 0.00 in0.0 mm 0.00 in0.0 mm
01:00 AM 68.4°F20.2°C 62.3°F16.8°C 81% 6.0 mph N9.7 kmh N 8.3 mph13.4 kmh 29.79 in1008.8 mb 0.00 in0.0 mm 0.00 in0.0 mm 0.00 in0.0 mm
01:15 AM 68.5°F20.3°C 63.2°F17.3°C 83% 3.8 mph N6.1 kmh N 6.9 mph11.1 kmh 29.78 in1008.5 mb 0.00 in0.0 mm 0.00 in0.0 mm 0.00 in0.0 mm
01:30 AM 69.3°F20.7°C 64.9°F18.3°C 86% 0.7 mph NNW1.1 kmh NNW 5.4 mph8.7 kmh 29.78 in1008.5 mb 0.00 in0.0 mm 0.00 in0.0 mm 0.00 in0.0 mm
01:45 AM 68.5°F20.3°C 63.9°F17.7°C 85% 8.3 mph SE13.4 kmh SE 10.7 mph17.2 kmh 29.78 in1008.5 mb 0.00 in0.0 mm 0.00 in0.0 mm 0.00 in0.0 mm
02:00 AM 66.4°F19.1°C 60.4°F15.8°C 81% 7.6 mph ESE12.2 kmh ESE 9.8 mph15.8 kmh 29.77 in1008.1 mb 0.00 in0.0 mm 0.00 in0.0 mm 0.00 in0.0 mm
02:15 AM 65.5°F18.6°C 60.9°F16.1°C 85% 3.1 mph ESE5.0 kmh ESE 11.4 mph18.3 kmh 29.75 in1007.5 mb 0.00 in0.0 mm 0.00 in0.0 mm 0.00 in0.0 mm
02:30 AM 64.6°F18.1°C 61.0°F16.1°C 88% 5.4 mph E8.7 kmh E 13.0 mph20.9 kmh 29.74 in1007.1 mb 0.00 in0.0 mm 0.00 in0.0 mm 0.00 in0.0 mm
02:45 AM 64.4°F18.0°C 61.4°F16.3°C 90% 3.1 mph ESE5.0 kmh ESE 12.1 mph19.5 kmh 29.74 in1007.1 mb 0.00 in0.0 mm 0.00 in0.0 mm 0.00 in0.0 mm
03:00 AM 64.6°F18.1°C 61.9°F16.6°C 91% 3.8 mph E6.1 kmh E 14.5 mph23.3 kmh 29.74 in1007.1 mb 0.00 in0.0 mm 0.00 in0.0 mm 0.00 in0.0 mm
03:15 AM 64.2°F17.9°C 60.9°F16.1°C 89% 7.6 mph SE12.2 kmh SE 15.9 mph25.6 kmh 29.74 in1007.1 mb 0.00 in0.0 mm 0.00 in0.0 mm 0.00 in0.0 mm
03:30 AM 63.7°F17.6°C 60.7°F15.9°C 90% 5.4 mph E8.7 kmh E 25.1 mph40.4 kmh 29.74 in1007.1 mb 0.00 in0.0 mm 0.00 in0.0 mm 0.00 in0.0 mm
03:45 AM 63.1°F17.3°C 60.5°F15.8°C 91% 3.1 mph ESE5.0 kmh ESE 18.3 mph29.5 kmh 29.74 in1007.1 mb 0.00 in0.0 mm 0.00 in0.0 mm 0.00 in0.0 mm
04:00 AM 62.8°F17.1°C 60.4°F15.8°C 92% 5.4 mph SSE8.7 kmh SSE 12.1 mph19.5 kmh 29.74 in1007.1 mb 0.00 in0.0 mm 0.00 in0.0 mm 0.00 in0.0 mm
04:15 AM 62.8°F17.1°C 60.4°F15.8°C 92% 3.1 mph ESE5.0 kmh ESE 10.7 mph17.2 kmh 29.73 in1006.8 mb 0.00 in0.0 mm 0.00 in0.0 mm 0.00 in0.0 mm
04:30 AM 62.6°F17.0°C 60.3°F15.7°C 92% 3.8 mph ESE6.1 kmh ESE 9.8 mph15.8 kmh 29.72 in1006.4 mb 0.00 in0.0 mm 0.00 in0.0 mm 0.00 in0.0 mm
04:45 AM 62.2°F16.8°C 60.2°F15.7°C 93% 6.0 mph E9.7 kmh E 7.6 mph12.2 kmh 29.72 in1006.4 mb 0.00 in0.0 mm 0.00 in0.0 mm 0.00 in0.0 mm
05:00 AM 61.9°F16.6°C 60.2°F15.7°C 94% 4.5 mph ESE7.2 kmh ESE 7.6 mph12.2 kmh 29.73 in1006.8 mb 0.00 in0.0 mm 0.00 in0.0 mm 0.00 in0.0 mm
05:15 AM 61.7°F16.5°C 60.0°F15.6°C 94% 7.6 mph E12.2 kmh E 12.1 mph19.5 kmh 29.72 in1006.4 mb 0.00 in0.0 mm 0.00 in0.0 mm 0.00 in0.0 mm
05:30 AM 61.7°F16.5°C 60.0°F15.6°C 94% Calm Calm 7.6 mph12.2 kmh 29.72 in1006.4 mb 0.00 in0.0 mm 0.00 in0.0 mm 0.00 in0.0 mm
05:45 AM 61.7°F16.5°C 60.3°F15.7°C 95% 3.1 mph ESE5.0 kmh ESE 8.3 mph13.4 kmh 29.72 in1006.4 mb 0.00 in0.0 mm 0.00 in0.0 mm 0.00 in0.0 mm
06:00 AM 61.9°F16.6°C 60.5°F15.8°C 95% 1.6 mph NNE2.6 kmh NNE 4.5 mph7.2 kmh 29.72 in1006.4 mb 0.00 in0.0 mm 0.00 in0.0 mm 0.00 in0.0 mm
06:15 AM 61.7°F16.5°C 60.3°F15.7°C 95% 3.8 mph SE6.1 kmh SE 7.6 mph12.2 kmh 29.73 in1006.8 mb 0.00 in0.0 mm 0.00 in0.0 mm 0.00 in0.0 mm
06:30 AM 62.2°F16.8°C 60.8°F16.0°C 95% 6.9 mph W11.1 kmh W 14.5 mph23.3 kmh 29.75 in1007.5 mb 0.00 in0.0 mm 0.00 in0.0 mm 0.00 in0.0 mm
06:45 AM 62.6°F17.0°C 61.2°F16.2°C 95% 3.8 mph SW6.1 kmh SW 5.4 mph8.7 kmh 29.75 in1007.5 mb 0.00 in0.0 mm 0.00 in0.0 mm 0.00 in0.0 mm
07:00 AM 62.4°F16.9°C 61.0°F16.1°C 95% 7.6 mph SSW12.2 kmh SSW 9.2 mph14.8 kmh 29.76 in1007.8 mb 0.00 in0.0 mm 0.00 in0.0 mm 0.00 in0.0 mm
07:15 AM 62.8°F17.1°C 60.4°F15.8°C 92% 5.4 mph WNW8.7 kmh WNW 18.3 mph29.5 kmh 29.76 in1007.8 mb 0.00 in0.0 mm 0.00 in0.0 mm 0.00 in0.0 mm
07:30 AM 62.4°F16.9°C 59.5°F15.3°C 90% 4.5 mph NW7.2 kmh NW 12.1 mph19.5 kmh 29.77 in1008.1 mb 0.00 in0.0 mm 0.00 in0.0 mm 0.00 in0.0 mm
07:45 AM 63.0°F17.2°C 56.7°F13.7°C 80% 3.1 mph NNW5.0 kmh NNW 11.4 mph18.3 kmh 29.76 in1007.8 mb 0.00 in0.0 mm 0.00 in0.0 mm 0.00 in0.0 mm
08:00 AM 63.3°F17.4°C 54.9°F12.7°C 74% 3.1 mph NW5.0 kmh NW 9.2 mph14.8 kmh 29.77 in1008.1 mb 0.00 in0.0 mm 0.00 in0.0 mm 0.00 in0.0 mm
08:15 AM 63.3°F17.4°C 55.3°F12.9°C 75% 3.1 mph NE5.0 kmh NE 6.9 mph11.1 kmh 29.78 in1008.5 mb 0.00 in0.0 mm 0.00 in0.0 mm 0.00 in0.0 mm
08:30 AM 63.3°F17.4°C 56.4°F13.6°C 78% 3.1 mph NE5.0 kmh NE 6.9 mph11.1 kmh 29.78 in1008.5 mb 0.00 in0.0 mm 0.00 in0.0 mm 0.00 in0.0 mm
08:45 AM 64.2°F17.9°C 57.2°F14.0°C 78% 1.6 mph NE2.6 kmh NE 6.0 mph9.7 kmh 29.78 in1008.5 mb 0.00 in0.0 mm 0.00 in0.0 mm 0.00 in0.0 mm
09:00 AM 64.2°F17.9°C 54.6°F12.6°C 71% 6.0 mph N9.7 kmh N 7.6 mph12.2 kmh 29.78 in1008.5 mb 0.00 in0.0 mm 0.00 in0.0 mm 0.00 in0.0 mm
09:15 AM 65.1°F18.4°C 55.9°F13.3°C 72% 6.0 mph WNW9.7 kmh WNW 6.9 mph11.1 kmh 29.77 in1008.1 mb 0.00 in0.0 mm 0.00 in0.0 mm 0.00 in0.0 mm
09:30 AM 64.6°F18.1°C 56.9°F13.8°C 76% 5.4 mph NW8.7 kmh NW 9.8 mph15.8 kmh 29.78 in1008.5 mb 0.00 in0.0 mm 0.00 in0.0 mm 0.00 in0.0 mm
09:45 AM 63.3°F17.4°C 53.8°F12.1°C 71% 10.7 mph NW17.2 kmh NW 15.9 mph25.6 kmh 29.79 in1008.8 mb 0.00 in0.0 mm 0.00 in0.0 mm 0.00 in0.0 mm
10:00 AM 63.3°F17.4°C 50.5°F10.3°C 63% 9.8 mph NNW15.8 kmh NNW 13.0 mph20.9 kmh 29.79 in1008.8 mb 0.00 in0.0 mm 0.00 in0.0 mm 0.00 in0.0 mm
10:15 AM 63.0°F17.2°C 52.3°F11.3°C 68% 8.3 mph NW13.4 kmh NW 13.0 mph20.9 kmh 29.80 in1009.1 mb 0.00 in0.0 mm 0.00 in0.0 mm 0.00 in0.0 mm
10:30 AM 62.2°F16.8°C 53.5°F11.9°C 73% 9.8 mph WNW15.8 kmh WNW 15.2 mph24.5 kmh 29.80 in1009.1 mb 0.00 in0.0 mm 0.00 in0.0 mm 0.00 in0.0 mm
10:45 AM 62.1°F16.7°C 54.1°F12.3°C 75% 3.8 mph WNW6.1 kmh WNW 13.6 mph21.9 kmh 29.82 in1009.8 mb 0.00 in0.0 mm 0.00 in0.0 mm 0.00 in0.0 mm
11:00 AM 61.5°F16.4°C 53.9°F12.2°C 76% 6.9 mph NNW11.1 kmh NNW 13.6 mph21.9 kmh 29.81 in1009.5 mb 0.00 in0.0 mm 0.00 in0.0 mm 0.00 in0.0 mm
11:15 AM 61.5°F16.4°C 55.0°F12.8°C 79% 3.1 mph E5.0 kmh E 10.7 mph17.2 kmh 29.81 in1009.5 mb 0.00 in0.0 mm 0.00 in0.0 mm 0.00 in0.0 mm
11:30 AM 61.2°F16.2°C 55.6°F13.1°C 82% 2.2 mph ESE3.5 kmh ESE 6.0 mph9.7 kmh 29.82 in1009.8 mb 0.00 in0.0 mm 0.00 in0.0 mm 0.00 in0.0 mm
11:45 AM 61.0°F16.1°C 55.8°F13.2°C 83% 5.4 mph SE8.7 kmh SE 7.6 mph12.2 kmh 29.82 in1009.8 mb 0.00 in0.0 mm 0.00 in0.0 mm 0.00 in0.0 mm
12:00 PM 60.3°F15.7°C 55.7°F13.2°C 85% 4.5 mph ESE7.2 kmh ESE 8.3 mph13.4 kmh 29.82 in1009.8 mb 0.00 in0.0 mm 0.00 in0.0 mm 0.00 in0.0 mm
12:15 PM 60.6°F15.9°C 56.1°F13.4°C 85% 1.6 mph SE2.6 kmh SE 3.8 mph6.1 kmh 29.82 in1009.8 mb 0.00 in0.0 mm 0.00 in0.0 mm 0.00 in0.0 mm
12:30 PM 61.0°F16.1°C 55.8°F13.2°C 83% 1.6 mph ESE2.6 kmh ESE 2.2 mph3.5 kmh 29.81 in1009.5 mb 0.00 in0.0 mm 0.00 in0.0 mm 0.00 in0.0 mm
12:45 PM 61.5°F16.4°C 56.3°F13.5°C 83% Calm Calm 3.1 mph5.0 kmh 29.82 in1009.8 mb 0.00 in0.0 mm 0.00 in0.0 mm 0.00 in0.0 mm
01:00 PM 61.3°F16.3°C 55.1°F12.8°C 80% 5.4 mph NNW8.7 kmh NNW 9.8 mph15.8 kmh 29.81 in1009.5 mb 0.00 in0.0 mm 0.00 in0.0 mm 0.00 in0.0 mm
01:15 PM 59.9°F15.5°C 54.1°F12.3°C 81% 11.4 mph N18.3 kmh N 15.2 mph24.5 kmh 29.81 in1009.5 mb 0.00 in0.0 mm 0.00 in0.0 mm 0.00 in0.0 mm
01:30 PM 58.6°F14.8°C 53.2°F11.8°C 82% 10.7 mph NNW17.2 kmh NNW 20.6 mph33.2 kmh 29.82 in1009.8 mb 0.01 in0.3 mm 0.04 in1.0 mm 0.01 in0.3 mm
01:45 PM 59.4°F15.2°C 53.9°F12.2°C 82% 9.2 mph NW14.8 kmh NW 13.6 mph21.9 kmh 29.82 in1009.8 mb 0.01 in0.3 mm 0.00 in0.0 mm 0.01 in0.3 mm
02:00 PM 59.9°F15.5°C 53.7°F12.1°C 80% 4.5 mph NW7.2 kmh NW 8.3 mph13.4 kmh 29.81 in1009.5 mb 0.01 in0.3 mm 0.00 in0.0 mm 0.01 in0.3 mm
02:15 PM 61.2°F16.2°C 54.3°F12.4°C 78% 0.7 mph NW1.1 kmh NW 6.0 mph9.7 kmh 29.81 in1009.5 mb 0.01 in0.3 mm 0.00 in0.0 mm 0.01 in0.3 mm
02:30 PM 64.0°F17.8°C 55.2°F12.9°C 73% 0.7 mph NW1.1 kmh NW 3.1 mph5.0 kmh 29.80 in1009.1 mb 0.00 in0.0 mm 0.00 in0.0 mm 0.01 in0.3 mm
02:45 PM 63.3°F17.4°C 53.0°F11.7°C 69% 3.1 mph SSE5.0 kmh SSE 5.4 mph8.7 kmh 29.81 in1009.5 mb 0.00 in0.0 mm 0.00 in0.0 mm 0.01 in0.3 mm
03:00 PM 62.6°F17.0°C 53.8°F12.1°C 73% 1.6 mph SW2.6 kmh SW 8.3 mph13.4 kmh 29.82 in1009.8 mb 0.00 in0.0 mm 0.00 in0.0 mm 0.01 in0.3 mm
03:15 PM 61.7°F16.5°C 54.1°F12.3°C 76% 3.8 mph WSW6.1 kmh WSW 7.6 mph12.2 kmh 29.82 in1009.8 mb 0.01 in0.3 mm 0.04 in1.0 mm 0.03 in0.8 mm
03:30 PM 61.3°F16.3°C 54.8°F12.7°C 79% Calm Calm 4.5 mph7.2 kmh 29.84 in1010.5 mb 0.01 in0.3 mm 0.00 in0.0 mm 0.03 in0.8 mm
03:45 PM 60.1°F15.6°C 54.2°F12.3°C 81% 5.4 mph WSW8.7 kmh WSW 10.7 mph17.2 kmh 29.84 in1010.5 mb 0.01 in0.3 mm 0.00 in0.0 mm 0.03 in0.8 mm
04:00 PM 59.5°F15.3°C 55.0°F12.8°C 85% 2.2 mph WSW3.5 kmh WSW 7.6 mph12.2 kmh 29.84 in1010.5 mb 0.03 in0.8 mm 0.03 in0.8 mm 0.04 in1.0 mm
04:15 PM 58.8°F14.9°C 55.3°F12.9°C 88% 6.0 mph NW9.7 kmh NW 8.3 mph13.4 kmh 29.84 in1010.5 mb 0.04 in1.0 mm 0.04 in1.0 mm 0.07 in1.8 mm
04:30 PM 58.5°F14.7°C 55.5°F13.1°C 90% 3.8 mph NW6.1 kmh NW 6.0 mph9.7 kmh 29.84 in1010.5 mb 0.05 in1.3 mm 0.04 in1.0 mm 0.08 in2.0 mm
04:45 PM 58.5°F14.7°C 55.5°F13.1°C 90% 0.7 mph N1.1 kmh N 5.4 mph8.7 kmh 29.83 in1010.2 mb 0.05 in1.3 mm 0.00 in0.0 mm 0.08 in2.0 mm
05:00 PM 59.0°F15.0°C 55.8°F13.2°C 89% Calm Calm 4.5 mph7.2 kmh 29.84 in1010.5 mb 0.05 in1.3 mm 0.00 in0.0 mm 0.10 in2.5 mm
05:15 PM 59.5°F15.3°C 56.3°F13.5°C 89% 2.2 mph NNE3.5 kmh NNE 3.8 mph6.1 kmh 29.83 in1010.2 mb 0.03 in0.8 mm 0.00 in0.0 mm 0.10 in2.5 mm
05:30 PM 59.5°F15.3°C 56.3°F13.5°C 89% 2.2 mph SE3.5 kmh SE 4.5 mph7.2 kmh 29.82 in1009.8 mb 0.01 in0.3 mm 0.00 in0.0 mm 0.10 in2.5 mm
05:45 PM 59.0°F15.0°C 56.1°F13.4°C 90% 2.2 mph E3.5 kmh E 8.3 mph13.4 kmh 29.82 in1009.8 mb 0.01 in0.3 mm 0.00 in0.0 mm 0.10 in2.5 mm
06:00 PM 58.5°F14.7°C 55.9°F13.3°C 91% 4.5 mph N7.2 kmh N 13.0 mph20.9 kmh 29.82 in1009.8 mb 0.00 in0.0 mm 0.00 in0.0 mm 0.10 in2.5 mm
06:15 PM 58.5°F14.7°C 54.9°F12.7°C 88% 3.8 mph NE6.1 kmh NE 7.6 mph12.2 kmh 29.83 in1010.2 mb 0.00 in0.0 mm 0.00 in0.0 mm 0.10 in2.5 mm
06:30 PM 58.3°F14.6°C 53.8°F12.1°C 85% 3.1 mph NE5.0 kmh NE 9.8 mph15.8 kmh 29.83 in1010.2 mb 0.01 in0.3 mm 0.04 in1.0 mm 0.11 in2.8 mm
06:45 PM 58.3°F14.6°C 53.5°F11.9°C 84% 0.7 mph N1.1 kmh N 5.4 mph8.7 kmh 29.84 in1010.5 mb 0.01 in0.3 mm 0.00 in0.0 mm 0.11 in2.8 mm
07:00 PM 59.0°F15.0°C 54.2°F12.3°C 84% 6.9 mph WSW11.1 kmh WSW 8.3 mph13.4 kmh 29.84 in1010.5 mb 0.01 in0.3 mm 0.00 in0.0 mm 0.11 in2.8 mm
07:15 PM 59.0°F15.0°C 53.5°F11.9°C 82% 4.5 mph NW7.2 kmh NW 8.3 mph13.4 kmh 29.84 in1010.5 mb 0.01 in0.3 mm 0.00 in0.0 mm 0.11 in2.8 mm
07:30 PM 58.5°F14.7°C 54.0°F12.2°C 85% 5.4 mph NW8.7 kmh NW 12.1 mph19.5 kmh 29.85 in1010.8 mb 0.00 in0.0 mm 0.00 in0.0 mm 0.11 in2.8 mm
07:45 PM 58.3°F14.6°C 54.4°F12.4°C 87% 6.0 mph W9.7 kmh W 13.0 mph20.9 kmh 29.85 in1010.8 mb 0.00 in0.0 mm 0.00 in0.0 mm 0.11 in2.8 mm
08:00 PM 58.5°F14.7°C 54.9°F12.7°C 88% 3.8 mph WNW6.1 kmh WNW 8.3 mph13.4 kmh 29.84 in1010.5 mb 0.01 in0.3 mm 0.01 in0.3 mm 0.12 in3.0 mm
08:15 PM 58.1°F14.5°C 54.3°F12.4°C 87% 3.8 mph WNW6.1 kmh WNW 6.9 mph11.1 kmh 29.85 in1010.8 mb 0.03 in0.8 mm 0.08 in2.0 mm 0.14 in3.6 mm
08:30 PM 58.1°F14.5°C 54.6°F12.6°C 88% 4.5 mph W7.2 kmh W 8.3 mph13.4 kmh 29.85 in1010.8 mb 0.04 in1.0 mm 0.04 in1.0 mm 0.15 in3.8 mm
08:45 PM 58.1°F14.5°C 54.9°F12.7°C 89% 4.5 mph W7.2 kmh W 9.8 mph15.8 kmh 29.86 in1011.2 mb 0.04 in1.0 mm 0.00 in0.0 mm 0.15 in3.8 mm
09:00 PM 58.1°F14.5°C 55.2°F12.9°C 90% 4.5 mph W7.2 kmh W 7.6 mph12.2 kmh 29.86 in1011.2 mb 0.04 in1.0 mm 0.00 in0.0 mm 0.16 in4.1 mm
09:15 PM 58.1°F14.5°C 55.5°F13.1°C 91% 3.8 mph NW6.1 kmh NW 9.8 mph15.8 kmh 29.87 in1011.5 mb 0.04 in1.0 mm 0.00 in0.0 mm 0.18 in4.6 mm
09:30 PM 58.1°F14.5°C 55.8°F13.2°C 92% 4.5 mph NW7.2 kmh NW 7.6 mph12.2 kmh 29.87 in1011.5 mb 0.03 in0.8 mm 0.00 in0.0 mm 0.18 in4.6 mm
09:45 PM 58.1°F14.5°C 54.6°F12.6°C 88% 3.8 mph NNE6.1 kmh NNE 11.4 mph18.3 kmh 29.88 in1011.9 mb 0.07 in1.8 mm 0.16 in4.1 mm 0.22 in5.6 mm
10:00 PM 58.1°F14.5°C 52.6°F11.4°C 82% 0.7 mph N1.1 kmh N 8.3 mph13.4 kmh 29.88 in1011.9 mb 0.08 in2.0 mm 0.01 in0.3 mm 0.24 in6.1 mm
10:15 PM 58.6°F14.8°C 52.2°F11.2°C 79% 1.6 mph NNE2.6 kmh NNE 15.2 mph24.5 kmh 29.87 in1011.5 mb 0.08 in2.0 mm 0.00 in0.0 mm 0.26 in6.6 mm
10:30 PM 58.5°F14.7°C 52.0°F11.1°C 79% 0.7 mph NE1.1 kmh NE 4.5 mph7.2 kmh 29.87 in1011.5 mb 0.08 in2.0 mm 0.00 in0.0 mm 0.26 in6.6 mm
10:45 PM 58.6°F14.8°C 52.5°F11.4°C 80% 3.8 mph N6.1 kmh N 6.0 mph9.7 kmh 29.87 in1011.5 mb 0.04 in1.0 mm 0.00 in0.0 mm 0.26 in6.6 mm
11:00 PM 59.4°F15.2°C 52.2°F11.2°C 77% 4.5 mph NNE7.2 kmh NNE 9.8 mph15.8 kmh 29.87 in1011.5 mb 0.01 in0.3 mm 0.00 in0.0 mm 0.16 in4.1 mm
11:15 PM 59.5°F15.3°C 52.3°F11.3°C 77% 0.7 mph E1.1 kmh E 6.0 mph9.7 kmh 29.88 in1011.9 mb 0.00 in0.0 mm 0.00 in0.0 mm 0.16 in4.1 mm
11:30 PM 59.5°F15.3°C 52.3°F11.3°C 77% 3.1 mph NNW5.0 kmh NNW 4.5 mph7.2 kmh 29.88 in1011.9 mb 0.00 in0.0 mm 0.00 in0.0 mm 0.16 in4.1 mm
11:45 PM 59.9°F15.5°C 52.0°F11.1°C 75% 0.7 mph N1.1 kmh N 4.5 mph7.2 kmh 29.88 in1011.9 mb 0.00 in0.0 mm 0.00 in0.0 mm 0.16 in4.1 mm